createdAt,value
2023-02-11T00:00:24.232Z,23.43
2023-02-11T00:03:26.402Z,23.77
2023-02-11T00:06:29.821Z,20.73
2023-02-11T00:09:31.983Z,21.00
2023-02-11T00:12:35.169Z,20.67
2023-02-11T00:15:37.188Z,19.35
2023-02-11T00:18:38.781Z,20.13
2023-02-11T00:21:40.430Z,19.75
2023-02-11T00:24:41.848Z,19.95
2023-02-11T00:27:43.291Z,19.75
2023-02-11T00:30:44.929Z,19.70
2023-02-11T00:33:46.802Z,19.55
2023-02-11T00:36:49.433Z,18.80
2023-02-11T00:39:50.928Z,19.42
2023-02-11T00:42:52.422Z,18.80
2023-02-11T00:45:53.968Z,21.07
2023-02-11T00:48:57.700Z,23.42
2023-02-11T00:51:59.209Z,23.77
2023-02-11T00:55:00.689Z,23.07
2023-02-11T00:58:02.376Z,23.13
2023-02-11T01:01:04.561Z,22.52
2023-02-11T01:04:06.064Z,21.92
2023-02-11T01:07:07.608Z,21.70
2023-02-11T01:10:09.393Z,21.40
2023-02-11T01:13:10.952Z,20.42
2023-02-11T01:16:13.396Z,19.87
2023-02-11T01:19:15.018Z,20.75
2023-02-11T01:22:19.303Z,21.17
2023-02-11T01:25:22.043Z,21.60
2023-02-11T01:28:26.329Z,24.80
2023-02-11T01:31:28.071Z,25.13
2023-02-11T01:34:29.678Z,22.95
2023-02-11T01:37:33.622Z,23.10
2023-02-11T01:40:35.062Z,24.15
2023-02-11T01:43:42.758Z,26.65
2023-02-11T01:46:44.446Z,25.83
2023-02-11T01:49:50.818Z,24.33
2023-02-11T01:52:52.274Z,25.30
2023-02-11T01:56:13.993Z,25.33
2023-02-11T01:59:22.442Z,24.83
2023-02-11T02:02:32.946Z,23.17
2023-02-11T02:05:45.287Z,23.17
2023-02-11T02:08:57.424Z,22.13
2023-02-11T02:11:59.017Z,22.85
2023-02-11T02:15:22.390Z,21.80
2023-02-11T02:18:36.079Z,21.63
2023-02-11T02:21:52.772Z,22.00
2023-02-11T02:25:00.999Z,23.75
2023-02-11T02:28:05.547Z,22.35
2023-02-11T02:31:25.644Z,21.70
2023-02-11T02:34:36.448Z,20.63
2023-02-11T02:37:46.453Z,20.17
2023-02-11T02:41:00.134Z,21.30
2023-02-11T02:44:02.376Z,21.27
2023-02-11T02:47:04.001Z,22.02
2023-02-11T02:50:08.341Z,19.92
2023-02-11T02:53:31.184Z,21.17
2023-02-11T02:56:50.348Z,20.73
2023-02-11T02:59:58.009Z,19.80
2023-02-11T03:03:26.192Z,20.45
2023-02-11T03:06:39.740Z,19.75
2023-02-11T03:10:23.429Z,20.33
2023-02-11T03:13:31.982Z,19.15
2023-02-11T03:16:39.077Z,20.65
2023-02-11T03:19:46.338Z,21.15
2023-02-11T03:23:16.918Z,20.13
2023-02-11T03:26:22.776Z,19.40
2023-02-11T03:29:39.373Z,18.40
2023-02-11T03:32:49.259Z,20.80
2023-02-11T03:35:55.965Z,20.10
2023-02-11T03:39:00.367Z,20.95
2023-02-11T03:42:03.999Z,21.65
2023-02-11T03:45:12.914Z,22.05
2023-02-11T03:48:22.413Z,20.60
2023-02-11T03:51:25.376Z,21.35
2023-02-11T03:54:31.264Z,22.27
2023-02-11T03:57:34.604Z,23.02
2023-02-11T04:00:39.775Z,21.67
2023-02-11T04:03:41.319Z,19.83
2023-02-11T04:06:43.440Z,20.40
2023-02-11T04:09:44.884Z,20.83
2023-02-11T04:12:46.384Z,21.07
2023-02-11T04:15:48.954Z,21.40
2023-02-11T04:18:50.673Z,20.80
2023-02-11T04:21:52.129Z,18.30
2023-02-11T04:24:53.591Z,18.83
2023-02-11T04:27:55.093Z,19.23
2023-02-11T04:30:57.210Z,18.53
2023-02-11T04:33:58.761Z,20.02
2023-02-11T04:37:00.221Z,20.13
2023-02-11T04:40:01.910Z,19.63
2023-02-11T04:43:03.414Z,20.38
2023-02-11T04:46:05.052Z,20.03
2023-02-11T04:49:06.532Z,19.77
2023-02-11T04:52:08.669Z,20.07
2023-02-11T04:55:10.211Z,19.58
2023-02-11T04:58:11.670Z,20.23
2023-02-11T05:01:15.271Z,19.07
2023-02-11T05:04:17.372Z,19.75
2023-02-11T05:07:18.888Z,20.67
2023-02-11T05:10:20.382Z,19.47
2023-02-11T05:13:22.113Z,19.37
2023-02-11T05:16:23.765Z,21.02
2023-02-11T05:19:25.244Z,18.38
2023-02-11T05:22:26.716Z,19.00
2023-02-11T05:25:28.203Z,16.83
2023-02-11T05:28:30.051Z,16.17
2023-02-11T05:31:32.705Z,16.05
2023-02-11T05:34:34.330Z,15.82
2023-02-11T05:37:35.856Z,16.52
2023-02-11T05:40:37.415Z,17.80
2023-02-11T05:43:38.927Z,18.17
2023-02-11T05:46:40.462Z,17.50
2023-02-11T05:49:41.966Z,18.67
2023-02-11T05:52:43.462Z,17.13
2023-02-11T05:55:45.073Z,18.08
2023-02-11T05:58:46.655Z,16.40
2023-02-11T06:01:48.246Z,16.43
2023-02-11T06:04:49.689Z,17.80
2023-02-11T06:07:51.329Z,17.93
2023-02-11T06:10:52.767Z,17.37
2023-02-11T06:13:54.238Z,15.90
2023-02-11T06:16:55.696Z,15.70
2023-02-11T06:19:57.473Z,17.17
2023-02-11T06:22:58.944Z,17.25
2023-02-11T06:26:05.791Z,16.77
2023-02-11T06:29:07.555Z,16.95
2023-02-11T06:32:23.323Z,16.42
2023-02-11T06:35:31.088Z,16.05
2023-02-11T06:38:32.544Z,17.05
2023-02-11T06:41:34.523Z,16.57
2023-02-11T06:44:36.065Z,15.40
2023-02-11T06:47:38.237Z,15.70
2023-02-11T06:50:39.739Z,14.82
2023-02-11T06:53:43.971Z,15.40
2023-02-11T06:56:45.429Z,15.70
2023-02-11T06:59:47.203Z,14.70
2023-02-11T07:02:48.736Z,14.07
2023-02-11T07:05:50.481Z,15.53
2023-02-11T07:08:52.089Z,13.77
2023-02-11T07:11:53.572Z,15.03
2023-02-11T07:14:56.656Z,15.37
2023-02-11T07:17:58.334Z,17.52
2023-02-11T07:21:00.048Z,20.23
2023-02-11T07:24:01.942Z,20.23
2023-02-11T07:27:03.477Z,22.98
2023-02-11T07:30:07.401Z,24.60
2023-02-11T07:33:09.039Z,23.38
2023-02-11T07:36:11.341Z,23.10
2023-02-11T07:42:14.365Z,21.95
2023-02-11T07:45:16.460Z,21.38
2023-02-11T07:48:17.897Z,21.55
2023-02-11T07:51:22.649Z,22.37
2023-02-11T07:54:24.133Z,21.73
2023-02-11T07:57:26.054Z,23.00
2023-02-11T08:00:27.731Z,19.42
2023-02-11T08:03:29.636Z,20.63
2023-02-11T08:06:34.850Z,20.30
2023-02-11T08:09:36.482Z,20.95
2023-02-11T08:12:37.914Z,21.05
2023-02-11T08:15:39.348Z,22.33
2023-02-11T08:18:40.912Z,22.50
2023-02-11T08:21:43.212Z,20.80
2023-02-11T08:24:44.750Z,22.15
2023-02-11T08:27:46.278Z,22.40
2023-02-11T08:30:47.780Z,22.87
2023-02-11T08:33:49.985Z,22.53
2023-02-11T08:36:51.437Z,23.25
2023-02-11T08:39:52.905Z,23.17
2023-02-11T08:42:54.412Z,22.23
2023-02-11T08:46:26.705Z,22.20
2023-02-11T08:49:31.484Z,22.27
2023-02-11T08:55:34.513Z,22.58
2023-02-11T08:58:36.197Z,23.63
2023-02-11T09:01:37.754Z,24.63
2023-02-11T09:04:40.048Z,24.45
2023-02-11T09:07:41.476Z,22.60
2023-02-11T09:10:43.275Z,23.00
2023-02-11T09:13:46.068Z,22.45
2023-02-11T09:16:48.565Z,21.17
2023-02-11T09:19:50.216Z,22.10
2023-02-11T09:22:51.950Z,21.47
2023-02-11T09:25:53.553Z,20.70
2023-02-11T09:28:56.497Z,22.40
2023-02-11T09:31:58.280Z,21.27
2023-02-11T09:34:59.839Z,20.90
2023-02-11T09:38:01.643Z,27.83
2023-02-11T09:41:07.747Z,28.63
2023-02-11T09:44:18.608Z,31.88
2023-02-11T09:47:28.184Z,30.92
2023-02-11T09:50:36.127Z,29.13
2023-02-11T09:53:42.286Z,29.02
2023-02-11T09:56:43.852Z,26.80
2023-02-11T09:59:45.429Z,27.43
2023-02-11T10:03:08.734Z,29.87
2023-02-11T10:06:16.461Z,29.33
2023-02-11T10:09:30.540Z,29.42
2023-02-11T10:12:56.190Z,29.75
2023-02-11T10:16:03.722Z,33.05
2023-02-11T10:19:39.011Z,34.53
2023-02-11T10:23:01.549Z,32.28
2023-02-11T10:26:03.546Z,33.20
2023-02-11T10:29:18.412Z,31.80
2023-02-11T10:32:35.159Z,35.63
2023-02-11T10:35:37.873Z,32.83
2023-02-11T10:38:39.940Z,35.78
2023-02-11T10:41:46.426Z,34.97
2023-02-11T10:45:04.501Z,34.30
2023-02-11T10:48:40.209Z,37.22
2023-02-11T10:51:41.751Z,38.25
2023-02-11T10:55:01.995Z,36.30
2023-02-11T10:58:04.828Z,35.60
2023-02-11T11:01:23.247Z,38.67
2023-02-11T11:04:42.493Z,40.13
2023-02-11T11:07:56.503Z,38.97
2023-02-11T11:11:10.031Z,37.28
2023-02-11T11:14:19.331Z,39.25
2023-02-11T11:17:21.105Z,37.63
2023-02-11T11:20:28.354Z,35.58
2023-02-11T11:23:31.186Z,38.03
2023-02-11T11:26:43.119Z,42.15
2023-02-11T11:29:54.788Z,42.88
2023-02-11T11:32:56.545Z,39.37
2023-02-11T11:36:03.344Z,41.85
2023-02-11T11:39:20.474Z,38.92
2023-02-11T11:42:24.680Z,35.10
2023-02-11T11:45:27.259Z,35.53
2023-02-11T11:48:35.037Z,36.40
2023-02-11T11:51:41.267Z,33.60
2023-02-11T11:54:47.780Z,29.98
2023-02-11T11:57:51.021Z,31.10
2023-02-11T12:00:58.457Z,34.05
2023-02-11T12:04:12.248Z,37.38
2023-02-11T12:07:35.308Z,35.95
2023-02-11T12:10:44.384Z,37.30
2023-02-11T12:14:08.338Z,33.97
2023-02-11T12:17:43.886Z,35.88
2023-02-11T12:21:04.068Z,34.63
2023-02-11T12:24:32.785Z,30.35
2023-02-11T12:27:40.218Z,31.90
2023-02-11T12:30:51.312Z,31.35
2023-02-11T12:34:07.464Z,30.50
2023-02-11T12:37:27.116Z,28.50
2023-02-11T12:40:59.833Z,26.33
2023-02-11T12:44:01.343Z,27.00
2023-02-11T12:47:30.434Z,25.10
2023-02-11T12:50:57.447Z,18.83
2023-02-11T12:54:06.839Z,19.83
2023-02-11T12:57:31.762Z,20.65
2023-02-11T13:00:45.985Z,19.70
2023-02-11T13:03:54.726Z,21.23
2023-02-11T13:07:02.219Z,18.35
2023-02-11T13:10:36.557Z,24.55
2023-02-11T13:13:47.096Z,20.92
2023-02-11T13:16:50.909Z,20.13
2023-02-11T13:19:58.714Z,22.17
2023-02-11T13:23:23.653Z,22.60
2023-02-11T13:26:33.651Z,19.33
2023-02-11T13:30:11.274Z,19.98
2023-02-11T13:33:18.227Z,19.52
2023-02-11T13:36:25.556Z,18.42
2023-02-11T13:39:27.134Z,17.25
2023-02-11T13:42:31.171Z,16.25
2023-02-11T13:45:47.942Z,16.80
2023-02-11T13:48:53.018Z,15.85
2023-02-11T13:51:55.523Z,13.73
2023-02-11T13:55:03.330Z,15.60
2023-02-11T13:58:07.487Z,13.65
2023-02-11T14:01:09.013Z,14.60
2023-02-11T14:04:44.159Z,16.67
2023-02-11T14:08:31.506Z,18.90
2023-02-11T14:11:33.203Z,21.05
2023-02-11T14:15:08.057Z,22.60
2023-02-11T14:18:44.348Z,25.02
2023-02-11T14:21:46.737Z,24.35
2023-02-11T14:27:56.709Z,25.08
2023-02-11T14:31:13.034Z,25.95
2023-02-11T14:34:35.397Z,24.33
2023-02-11T14:37:59.194Z,25.27
2023-02-11T14:41:10.484Z,26.63
2023-02-11T14:44:21.562Z,26.95
2023-02-11T14:47:37.028Z,27.98
2023-02-11T14:50:46.198Z,26.05
2023-02-11T14:53:51.100Z,26.38
2023-02-11T14:57:11.885Z,27.02
2023-02-11T15:00:21.537Z,25.40
2023-02-11T15:03:41.156Z,27.77
2023-02-11T15:06:47.136Z,25.50
2023-02-11T15:09:52.421Z,25.50
2023-02-11T15:12:54.792Z,27.45
2023-02-11T15:19:05.526Z,24.02
2023-02-11T15:22:22.205Z,23.48
2023-02-11T15:25:24.131Z,25.02
2023-02-11T15:28:28.966Z,23.55
2023-02-11T15:31:33.822Z,25.00
2023-02-11T15:34:37.161Z,23.58
2023-02-11T15:37:39.872Z,23.50
2023-02-11T15:40:52.664Z,24.08
2023-02-11T15:43:54.501Z,24.25
2023-02-11T15:46:56.287Z,24.53
2023-02-11T15:49:58.052Z,24.48
2023-02-11T15:53:02.638Z,24.80
2023-02-11T15:56:17.502Z,22.65
2023-02-11T15:59:30.524Z,23.83
2023-02-11T16:02:35.013Z,24.63
2023-02-11T16:05:37.984Z,25.80
2023-02-11T16:08:41.537Z,26.88
2023-02-11T16:11:45.749Z,26.67
2023-02-11T16:14:47.194Z,25.40
2023-02-11T16:17:48.797Z,25.63
2023-02-11T16:20:50.897Z,23.55
2023-02-11T16:27:01.295Z,24.85
2023-02-11T16:30:02.781Z,27.52
2023-02-11T16:33:05.488Z,30.27
2023-02-11T16:36:19.488Z,31.52
2023-02-11T16:39:22.453Z,31.00
2023-02-11T16:42:24.926Z,29.85
2023-02-11T16:45:26.845Z,29.35
2023-02-11T16:48:28.347Z,27.92
2023-02-11T16:51:29.963Z,28.17
2023-02-11T16:54:31.612Z,28.85
2023-02-11T16:57:33.172Z,28.40
2023-02-11T17:00:36.225Z,27.23
2023-02-11T17:03:40.452Z,30.38
2023-02-11T17:06:42.009Z,31.70
2023-02-11T17:09:43.597Z,32.67
2023-02-11T17:12:45.359Z,29.27
2023-02-11T17:15:46.909Z,30.38
2023-02-11T17:18:49.133Z,28.73
2023-02-11T17:21:52.761Z,28.02
2023-02-11T17:24:59.709Z,29.70
2023-02-11T17:28:01.262Z,30.20
2023-02-11T17:31:08.292Z,38.80
2023-02-11T17:34:09.882Z,38.35
2023-02-11T17:37:11.619Z,40.90
2023-02-11T17:40:17.113Z,44.45
2023-02-11T17:43:18.586Z,42.78
2023-02-11T17:46:20.206Z,45.70
2023-02-11T17:49:21.769Z,48.45
2023-02-11T17:52:28.053Z,49.40
2023-02-11T17:55:33.239Z,51.08
2023-02-11T17:58:35.152Z,49.03
2023-02-11T18:01:38.220Z,50.20
2023-02-11T18:04:43.258Z,50.70
2023-02-11T18:07:52.625Z,50.92
2023-02-11T18:10:54.083Z,51.08
2023-02-11T18:13:56.304Z,49.10
2023-02-11T18:16:57.968Z,48.65
2023-02-11T18:19:59.470Z,48.63
2023-02-11T18:23:01.087Z,46.07
2023-02-11T18:26:03.177Z,47.10
2023-02-11T18:29:06.166Z,51.97
2023-02-11T18:32:07.894Z,58.40
2023-02-11T18:35:14.799Z,58.35
2023-02-11T18:38:16.497Z,56.60
2023-02-11T18:41:17.957Z,61.80
2023-02-11T18:44:22.267Z,58.30
2023-02-11T18:47:23.844Z,57.33
2023-02-11T18:50:25.348Z,54.50
2023-02-11T18:53:26.908Z,55.77
2023-02-11T18:56:28.871Z,53.27
2023-02-11T18:59:30.437Z,53.75
2023-02-11T19:02:31.964Z,54.75
2023-02-11T19:05:43.609Z,56.07
2023-02-11T19:08:45.702Z,52.08
2023-02-11T19:11:47.422Z,57.63
2023-02-11T19:14:48.960Z,55.30
2023-02-11T19:17:50.409Z,52.83
2023-02-11T19:20:51.928Z,53.20
2023-02-11T19:23:53.371Z,52.30
2023-02-11T19:27:00.435Z,51.33
2023-02-11T19:30:02.013Z,53.75
2023-02-11T19:33:03.547Z,55.10
2023-02-11T19:36:06.718Z,47.70
2023-02-11T19:39:08.589Z,49.47
2023-02-11T19:42:10.666Z,46.15
2023-02-11T19:45:12.166Z,48.28
2023-02-11T19:48:13.649Z,47.80
2023-02-11T19:51:15.816Z,43.33
2023-02-11T19:54:17.407Z,46.28
2023-02-11T19:57:18.894Z,44.10
2023-02-11T20:00:20.870Z,44.53
2023-02-11T20:03:22.358Z,48.90
2023-02-11T20:06:29.712Z,47.75
2023-02-11T20:09:31.766Z,46.72
2023-02-11T20:12:33.204Z,49.22
2023-02-11T20:15:34.657Z,47.10
2023-02-11T20:18:36.680Z,49.43
2023-02-11T20:21:38.487Z,48.88
2023-02-11T20:24:40.042Z,48.92
2023-02-11T20:27:41.735Z,49.07
2023-02-11T20:30:43.289Z,47.50
2023-02-11T20:33:45.431Z,50.37
2023-02-11T20:36:53.074Z,49.15
2023-02-11T20:39:54.646Z,50.38
2023-02-11T20:42:56.666Z,50.07
2023-02-11T20:46:05.397Z,56.00
2023-02-11T20:49:08.648Z,50.55
2023-02-11T20:52:10.176Z,49.38
2023-02-11T20:55:11.953Z,47.50
2023-02-11T20:58:13.394Z,46.63
2023-02-11T21:01:21.596Z,51.42
2023-02-11T21:04:29.619Z,44.78
2023-02-11T21:07:31.373Z,44.88
2023-02-11T21:10:32.898Z,44.95
2023-02-11T21:13:36.101Z,46.17
2023-02-11T21:16:38.214Z,45.10
2023-02-11T21:19:41.346Z,43.25
2023-02-11T21:22:43.220Z,42.83
2023-02-11T21:25:44.748Z,45.72
2023-02-11T21:28:46.266Z,45.33
2023-02-11T21:31:48.946Z,44.88
2023-02-11T21:34:50.503Z,46.80
2023-02-11T21:37:52.227Z,55.07
2023-02-11T21:40:53.752Z,55.08
2023-02-11T21:43:55.237Z,52.77
2023-02-11T21:46:56.774Z,56.80
2023-02-11T21:49:58.423Z,56.33
2023-02-11T21:52:59.911Z,55.90
2023-02-11T21:56:09.373Z,54.42
2023-02-11T21:59:13.895Z,52.65
2023-02-11T22:02:15.346Z,55.30
2023-02-11T22:05:16.895Z,54.07
2023-02-11T22:08:20.252Z,55.13
2023-02-11T22:11:22.818Z,53.63
2023-02-11T22:14:24.308Z,53.83
2023-02-11T22:17:25.961Z,52.90
2023-02-11T22:20:27.468Z,50.67
2023-02-11T22:23:29.937Z,52.40
2023-02-11T22:29:33.017Z,51.00
2023-02-11T22:32:34.555Z,55.13
2023-02-11T22:35:36.058Z,51.20
2023-02-11T22:38:37.578Z,51.53
2023-02-11T22:41:40.487Z,50.63
2023-02-11T22:44:41.919Z,47.13
2023-02-11T22:47:43.375Z,42.63
2023-02-11T22:50:44.861Z,43.17
2023-02-11T22:53:55.326Z,36.47
2023-02-11T22:56:56.847Z,37.97
2023-02-11T22:59:58.370Z,31.10
2023-02-11T23:02:59.905Z,39.80
2023-02-11T23:06:01.545Z,43.55
2023-02-11T23:09:09.019Z,47.90
2023-02-11T23:12:10.562Z,44.75
2023-02-11T23:15:12.048Z,44.87
2023-02-11T23:18:14.080Z,43.00
2023-02-11T23:21:22.510Z,45.65
2023-02-11T23:24:23.970Z,46.85
2023-02-11T23:27:25.479Z,44.23
2023-02-11T23:30:28.261Z,42.70
2023-02-11T23:33:29.909Z,40.22
2023-02-11T23:36:32.339Z,40.85
2023-02-11T23:42:38.642Z,38.45
2023-02-11T23:45:40.210Z,40.63
2023-02-11T23:48:41.671Z,38.80
2023-02-11T23:51:43.384Z,38.10
2023-02-11T23:54:45.541Z,39.45
2023-02-11T23:57:47.010Z,37.55
